首页
METAR-TAF:

METAR-TAF

机场 :

奧爾德尼島,

纬度: 49-43N, 经度: 002-12W, 海拔: 71米

当前天气观测

该预报发布于5小时和48分钟前的17:20 UTC
风速8节,风向东北
温度 14°C
湿度 88%
气压 1006 hPa
能见度10公里或以上
1500米以下无云,无积雨云

METAR: EGJA 031720Z 04008KT CAVOK 14/12 Q1006

时间: 00:08 (23:08 UTC)

预报

该预报发布于9小时和4分钟前的14:04 UTC
预报有效从03日的 15点(UTC)到 04日的 00点(UTC)
风速13节,风向北转东北
能见度10公里或以上
1500米以下无云,无积雨云
几率 30% :
短暂存在
从 03日的 15点(UTC)到 03日的 21点(UTC)
能見度: 8000
多云层高于4500英尺, 积雨云.
阵雨
几率 40% :
短暂存在
从 03日的 21点(UTC)到 04日的 00点(UTC)
能見度: 5000
散云层高于1000英尺
多云层高于2000英尺, 积雨云.
阵雨

TAF: EGJA 031404Z 0315/0400 02013KT CAVOK PROB30 TEMPO 0315/0321 8000 SHRA BKN045CB PROB40 TEMPO 0321/0400 5000 SHRA SCT010 BKN020CB

超过4000个机场的气象观测和天气预报(METAR&TAF报告)。

可查询的气象台以黄色和红色小点在地图上表示。

将鼠标移到小点上方,可查看气象台名称。

然后点击查看天气观测和预报。

如需切换地图:点击带黑十字的绿色按钮放大地图;点击带横线的绿色按钮缩小地图;或者点击绿色箭头查看邻近地区的地图。


METAR-TAF: